Terminal Aerodrome Forecast
Issued by NWS Duluth, MN

Home | Current Version | Previous Version | Text Only | Print | Product List | Glossary On
Versions: 1 2 3 4 5 6 7 8 9 10 11 12 13 14 15 16 17 18 19 20 21 22 23 24 25 26 27 28 29
299
FTUS43 KDLH 041738
TAFINL
TAF
KINL 041738Z 0418/0518 29007KT P6SM BKN013 BKN050
     FM050000 VRB03KT P6SM SCT018 OVC035
     FM050800 VRB03KT P6SM BKN025 OVC050
     FM051300 16004KT 5SM BR VCSH OVC025=

USA.gov is the U.S. government's official web portal to all federal, state and local government web resources and services.